createdAt,value
2023-03-25T00:00:43.771Z,92.14
2023-03-25T00:01:43.794Z,92.37
2023-03-25T00:02:43.766Z,92.41
2023-03-25T00:03:44.401Z,92.57
2023-03-25T00:04:43.753Z,92.53
2023-03-25T00:05:43.697Z,92.22
2023-03-25T00:06:43.692Z,92.19
2023-03-25T00:07:43.666Z,92.38
2023-03-25T00:08:43.669Z,92.57
2023-03-25T00:09:43.652Z,92.94
2023-03-25T00:10:43.884Z,93.19
2023-03-25T00:11:43.621Z,93.55
2023-03-25T00:12:43.617Z,93.92
2023-03-25T00:13:43.610Z,93.88
2023-03-25T00:14:43.597Z,93.81
2023-03-25T00:15:43.569Z,94.03
2023-03-25T00:16:43.584Z,94.17
2023-03-25T00:17:43.566Z,94.35
2023-03-25T00:18:43.531Z,94.96
2023-03-25T00:19:43.532Z,95.32
2023-03-25T00:20:44.158Z,95.65
2023-03-25T00:21:44.156Z,95.88
2023-03-25T00:22:43.469Z,96.24
2023-03-25T00:23:43.454Z,96.46
2023-03-25T00:24:42.804Z,96.57
2023-03-25T00:25:43.440Z,96.65
2023-03-25T00:26:43.424Z,96.46
2023-03-25T00:27:43.378Z,96.11
2023-03-25T00:28:42.668Z,96.37
2023-03-25T00:29:43.382Z,96.96
2023-03-25T00:30:43.375Z,97.03
2023-03-25T00:31:43.354Z,96.83
2023-03-25T00:32:43.122Z,97.13
2023-03-25T00:33:43.138Z,97.18
2023-03-25T00:34:43.319Z,96.76
2023-03-25T00:35:43.188Z,97.38
2023-03-25T00:36:43.276Z,97.57
2023-03-25T00:37:43.257Z,97.68
2023-03-25T00:38:43.779Z,98.05
2023-03-25T00:39:43.156Z,97.60
2023-03-25T00:40:42.983Z,97.43
2023-03-25T00:41:43.138Z,97.60
2023-03-25T00:42:43.176Z,97.69
2023-03-25T00:43:43.202Z,98.02
2023-03-25T00:44:43.157Z,98.49
2023-03-25T00:45:43.887Z,98.80
2023-03-25T00:46:43.906Z,98.96
2023-03-25T00:47:43.161Z,98.94
2023-03-25T00:48:43.838Z,99.21
2023-03-25T00:49:43.835Z,99.52
2023-03-25T00:50:43.814Z,99.68
2023-03-25T00:51:52.261Z,99.68
2023-03-25T00:52:44.058Z,99.88
2023-03-25T00:53:43.769Z,99.66
2023-03-25T00:54:43.781Z,99.68
2023-03-25T00:55:43.760Z,99.65
2023-03-25T00:56:43.787Z,99.83
2023-03-25T00:57:42.976Z,100.00
2023-03-25T00:58:43.736Z,100.00
2023-03-25T00:59:43.691Z,100.00
2023-03-25T01:00:43.680Z,100.00
2023-03-25T01:01:43.718Z,100.00
2023-03-25T01:02:43.795Z,100.00
2023-03-25T01:03:42.981Z,100.00
2023-03-25T01:04:43.170Z,100.00
2023-03-25T01:05:42.891Z,100.00
2023-03-25T01:06:42.873Z,100.00
2023-03-25T01:07:42.873Z,100.00
2023-03-25T01:08:43.530Z,100.00
2023-03-25T01:09:42.885Z,100.00
2023-03-25T01:10:42.837Z,100.00
2023-03-25T01:11:43.494Z,100.00
2023-03-25T01:12:42.783Z,100.00
2023-03-25T01:13:42.801Z,100.00
2023-03-25T01:14:42.764Z,100.00
2023-03-25T01:15:43.488Z,100.00
2023-03-25T01:16:42.748Z,100.00
2023-03-25T01:17:42.718Z,100.00
2023-03-25T01:18:42.740Z,100.00
2023-03-25T01:19:42.710Z,100.00
2023-03-25T01:20:42.691Z,100.00
2023-03-25T01:21:42.683Z,100.00
2023-03-25T01:22:43.342Z,100.00
2023-03-25T01:23:42.643Z,100.00
2023-03-25T01:24:42.642Z,100.00
2023-03-25T01:25:42.613Z,100.00
2023-03-25T01:26:43.270Z,100.00
2023-03-25T01:27:42.573Z,100.00
2023-03-25T01:28:42.576Z,100.00
2023-03-25T01:29:42.198Z,100.00
2023-03-25T01:30:42.569Z,100.00
2023-03-25T01:31:42.141Z,100.00
2023-03-25T01:32:42.540Z,100.00
2023-03-25T01:33:42.526Z,100.00
2023-03-25T01:34:42.493Z,100.00
2023-03-25T01:35:42.219Z,100.00
2023-03-25T01:36:42.207Z,100.00
2023-03-25T01:37:42.195Z,100.00
2023-03-25T01:38:42.444Z,99.94
2023-03-25T01:39:42.220Z,99.64
2023-03-25T01:40:42.207Z,99.56
2023-03-25T01:41:49.091Z,99.68
2023-03-25T01:42:43.375Z,99.81
2023-03-25T01:43:42.379Z,99.65
2023-03-25T01:44:41.649Z,99.27
2023-03-25T01:45:42.411Z,98.85
2023-03-25T01:46:42.344Z,98.60
2023-03-25T01:47:41.788Z,98.43
2023-03-25T01:48:42.316Z,98.29
2023-03-25T01:49:43.021Z,98.42
2023-03-25T01:50:42.301Z,98.39
2023-03-25T01:51:42.275Z,98.30
2023-03-25T01:52:41.929Z,98.13
2023-03-25T01:53:42.246Z,97.77
2023-03-25T01:54:42.005Z,97.71
2023-03-25T01:55:42.216Z,97.86
2023-03-25T01:56:42.231Z,98.03
2023-03-25T01:57:42.206Z,97.86
2023-03-25T01:58:42.192Z,97.48
2023-03-25T01:59:42.168Z,97.40
2023-03-25T02:00:42.195Z,97.30
2023-03-25T02:01:42.888Z,97.28
2023-03-25T02:02:42.136Z,97.04
2023-03-25T02:03:41.472Z,97.20
2023-03-25T02:04:42.096Z,97.40
2023-03-25T02:05:42.758Z,97.18
2023-03-25T02:06:42.067Z,97.09
2023-03-25T02:07:43.138Z,97.41
2023-03-25T02:08:41.340Z,97.50
2023-03-25T02:09:42.030Z,97.62
2023-03-25T02:10:42.015Z,97.88
2023-03-25T02:11:42.001Z,98.02
2023-03-25T02:12:41.985Z,98.13
2023-03-25T02:13:41.948Z,98.26
2023-03-25T02:14:41.956Z,98.33
2023-03-25T02:15:41.962Z,98.32
2023-03-25T02:16:41.198Z,98.08
2023-03-25T02:17:41.959Z,98.14
2023-03-25T02:18:41.901Z,98.36
2023-03-25T02:19:41.230Z,98.60
2023-03-25T02:20:41.874Z,98.47
2023-03-25T02:21:42.550Z,98.09
2023-03-25T02:22:41.847Z,98.03
2023-03-25T02:23:42.530Z,98.01
2023-03-25T02:24:41.869Z,97.95
2023-03-25T02:25:41.818Z,97.91
2023-03-25T02:26:41.822Z,97.88
2023-03-25T02:27:41.055Z,97.91
2023-03-25T02:28:41.757Z,97.80
2023-03-25T02:29:41.774Z,97.28
2023-03-25T02:30:41.747Z,97.01
2023-03-25T02:31:41.810Z,96.82
2023-03-25T02:32:41.018Z,96.85
2023-03-25T02:33:41.728Z,97.18
2023-03-25T02:34:42.371Z,97.28
2023-03-25T02:35:40.982Z,97.15
2023-03-25T02:36:41.668Z,96.70
2023-03-25T02:37:41.647Z,96.79
2023-03-25T02:38:41.665Z,96.98
2023-03-25T02:39:41.627Z,97.43
2023-03-25T02:40:41.608Z,97.64
2023-03-25T02:41:42.275Z,97.73
2023-03-25T02:42:41.590Z,97.53
2023-03-25T02:43:40.862Z,97.35
2023-03-25T02:44:41.578Z,97.39
2023-03-25T02:45:41.614Z,97.38
2023-03-25T02:46:41.541Z,97.70
2023-03-25T02:47:42.272Z,97.68
2023-03-25T02:48:41.482Z,97.25
2023-03-25T02:49:41.265Z,97.15
2023-03-25T02:50:41.267Z,97.21
2023-03-25T02:51:41.258Z,97.03
2023-03-25T02:52:41.466Z,97.06
2023-03-25T02:53:42.180Z,96.79
2023-03-25T02:54:41.266Z,96.54
2023-03-25T02:55:41.431Z,96.59
2023-03-25T02:56:40.691Z,96.58
2023-03-25T02:57:41.265Z,96.76
2023-03-25T02:58:41.368Z,96.88
2023-03-25T02:59:41.264Z,97.06
2023-03-25T03:00:41.340Z,97.07
2023-03-25T03:01:41.386Z,97.04
2023-03-25T03:02:41.346Z,96.99
2023-03-25T03:03:41.987Z,97.03
2023-03-25T03:04:41.291Z,96.70
2023-03-25T03:05:41.321Z,96.63
2023-03-25T03:06:41.258Z,96.72
2023-03-25T03:07:40.530Z,96.89
2023-03-25T03:08:41.218Z,96.12
2023-03-25T03:09:41.221Z,95.86
2023-03-25T03:10:41.228Z,95.92
2023-03-25T03:11:41.209Z,95.92
2023-03-25T03:12:41.181Z,96.35
2023-03-25T03:13:41.171Z,96.46
2023-03-25T03:14:41.151Z,96.33
2023-03-25T03:15:40.885Z,96.41
2023-03-25T03:16:41.183Z,96.53
2023-03-25T03:17:41.198Z,96.73
2023-03-25T03:18:41.078Z,96.64
2023-03-25T03:19:41.130Z,96.39
2023-03-25T03:20:41.798Z,96.46
2023-03-25T03:21:41.734Z,96.49
2023-03-25T03:22:41.058Z,96.24
2023-03-25T03:23:41.729Z,95.96
2023-03-25T03:24:41.034Z,96.00
2023-03-25T03:25:41.007Z,96.07
2023-03-25T03:26:41.034Z,96.32
2023-03-25T03:27:40.996Z,96.59
2023-03-25T03:28:40.251Z,96.59
2023-03-25T03:29:40.955Z,96.83
2023-03-25T03:30:40.962Z,96.96
2023-03-25T03:31:52.171Z,97.29
2023-03-25T03:32:41.996Z,97.26
2023-03-25T03:33:40.923Z,97.47
2023-03-25T03:34:41.556Z,97.26
2023-03-25T03:35:40.911Z,97.20
2023-03-25T03:36:41.526Z,97.45
2023-03-25T03:37:40.858Z,97.37
2023-03-25T03:38:41.074Z,97.32
2023-03-25T03:39:40.103Z,97.26
2023-03-25T03:40:40.799Z,97.02
2023-03-25T03:41:40.793Z,96.55
2023-03-25T03:42:40.785Z,96.69
2023-03-25T03:43:40.754Z,96.75
2023-03-25T03:44:40.309Z,96.74
2023-03-25T03:45:40.750Z,96.86
2023-03-25T03:46:40.778Z,97.10
2023-03-25T03:47:40.777Z,97.54
2023-03-25T03:48:40.696Z,97.90
2023-03-25T03:49:40.653Z,98.21
2023-03-25T03:50:40.132Z,98.54
2023-03-25T03:51:40.677Z,98.59
2023-03-25T03:52:40.195Z,98.66
2023-03-25T03:53:40.625Z,98.81
2023-03-25T03:54:40.599Z,99.03
2023-03-25T03:55:40.262Z,99.15
2023-03-25T03:56:40.617Z,98.66
2023-03-25T03:57:40.590Z,98.69
2023-03-25T03:58:40.311Z,98.77
2023-03-25T03:59:40.315Z,99.07
2023-03-25T04:00:39.816Z,99.16
2023-03-25T04:01:40.355Z,99.39
2023-03-25T04:02:40.539Z,99.49
2023-03-25T04:03:40.332Z,99.60
2023-03-25T04:04:40.449Z,99.73
2023-03-25T04:05:41.142Z,99.85
2023-03-25T04:06:40.317Z,99.93
2023-03-25T04:07:40.429Z,100.00
2023-03-25T04:08:40.314Z,99.97
2023-03-25T04:09:40.419Z,99.96
2023-03-25T04:10:40.408Z,100.00
2023-03-25T04:11:40.343Z,100.00
2023-03-25T04:12:40.372Z,100.00
2023-03-25T04:13:40.353Z,100.00
2023-03-25T04:14:40.334Z,100.00
2023-03-25T04:15:41.321Z,100.00
2023-03-25T04:16:40.344Z,100.00
2023-03-25T04:17:41.084Z,100.00
2023-03-25T04:18:40.511Z,99.84
2023-03-25T04:19:39.543Z,99.45
2023-03-25T04:20:40.259Z,99.14
2023-03-25T04:21:40.244Z,99.15
2023-03-25T04:22:39.522Z,99.20
2023-03-25T04:23:40.223Z,99.34
2023-03-25T04:24:40.203Z,99.39
2023-03-25T04:25:40.190Z,99.49
2023-03-25T04:26:40.177Z,99.50
2023-03-25T04:27:40.188Z,99.61
2023-03-25T04:28:40.150Z,99.67
2023-03-25T04:29:40.124Z,99.57
2023-03-25T04:30:40.145Z,99.60
2023-03-25T04:31:40.829Z,99.51
2023-03-25T04:32:40.846Z,99.59
2023-03-25T04:33:40.084Z,99.69
2023-03-25T04:34:40.761Z,99.84
2023-03-25T04:35:40.096Z,100.00
2023-03-25T04:36:40.047Z,100.00
2023-03-25T04:37:40.045Z,100.00
2023-03-25T04:38:40.023Z,100.00
2023-03-25T04:39:40.692Z,100.00
2023-03-25T04:40:39.993Z,100.00
2023-03-25T04:41:40.699Z,100.00
2023-03-25T04:42:39.970Z,99.73
2023-03-25T04:43:39.970Z,99.60
2023-03-25T04:44:39.912Z,99.50
2023-03-25T04:45:39.958Z,99.27
2023-03-25T04:46:39.964Z,99.10
2023-03-25T04:47:39.920Z,99.20
2023-03-25T04:48:39.884Z,99.28
2023-03-25T04:49:39.840Z,99.16
2023-03-25T04:50:39.857Z,99.16
2023-03-25T04:51:39.854Z,99.16
2023-03-25T04:52:39.847Z,99.26
2023-03-25T04:53:39.835Z,99.41
2023-03-25T04:54:39.784Z,99.39
2023-03-25T04:55:39.781Z,99.27
2023-03-25T04:56:40.474Z,99.06
2023-03-25T04:57:39.761Z,98.81
2023-03-25T04:58:39.981Z,98.63
2023-03-25T04:59:39.370Z,98.76
2023-03-25T05:00:39.726Z,98.93
2023-03-25T05:01:39.736Z,99.02
2023-03-25T05:02:39.737Z,98.83
2023-03-25T05:03:39.680Z,98.79
2023-03-25T05:04:39.653Z,98.75
2023-03-25T05:05:39.649Z,98.69
2023-03-25T05:06:39.643Z,98.64
2023-03-25T05:07:39.618Z,97.77
2023-03-25T05:08:39.608Z,97.48
2023-03-25T05:09:39.568Z,97.35
2023-03-25T05:10:38.979Z,97.31
2023-03-25T05:11:39.621Z,97.53
2023-03-25T05:12:39.016Z,97.58
2023-03-25T05:13:39.540Z,97.82
2023-03-25T05:14:39.108Z,97.99
2023-03-25T05:15:39.516Z,97.95
2023-03-25T05:16:40.215Z,97.98
2023-03-25T05:17:39.537Z,97.96
2023-03-25T05:18:39.236Z,97.87
2023-03-25T05:19:39.458Z,97.77
2023-03-25T05:20:39.294Z,97.64
2023-03-25T05:21:40.169Z,97.64
2023-03-25T05:22:39.383Z,97.56
2023-03-25T05:23:39.405Z,97.36
2023-03-25T05:24:40.389Z,97.40
2023-03-25T05:25:39.345Z,97.34
2023-03-25T05:26:38.811Z,97.24
2023-03-25T05:27:39.405Z,97.19
2023-03-25T05:28:39.364Z,96.94
2023-03-25T05:29:40.061Z,97.20
2023-03-25T05:30:40.059Z,97.12
2023-03-25T05:31:40.088Z,97.08
2023-03-25T05:32:39.286Z,97.10
2023-03-25T05:33:40.013Z,97.19
2023-03-25T05:34:39.983Z,97.07
2023-03-25T05:35:40.028Z,96.87
2023-03-25T05:36:39.953Z,96.88
2023-03-25T05:37:39.226Z,96.78
2023-03-25T05:38:39.925Z,96.81
2023-03-25T05:39:39.926Z,96.81
2023-03-25T05:40:39.915Z,96.99
2023-03-25T05:41:39.899Z,97.05
2023-03-25T05:42:39.159Z,96.98
2023-03-25T05:43:39.137Z,97.01
2023-03-25T05:44:39.116Z,97.14
2023-03-25T05:45:39.116Z,97.05
2023-03-25T05:46:39.095Z,96.75
2023-03-25T05:47:39.123Z,96.38
2023-03-25T05:48:39.100Z,96.33
2023-03-25T05:49:39.055Z,96.26
2023-03-25T05:50:39.022Z,96.50
2023-03-25T05:51:39.090Z,96.26
2023-03-25T05:52:39.014Z,96.12
2023-03-25T05:53:38.993Z,96.25
2023-03-25T05:54:38.998Z,95.91
2023-03-25T05:55:39.663Z,95.89
2023-03-25T05:56:39.004Z,95.75
2023-03-25T05:57:38.958Z,95.69
2023-03-25T05:58:38.932Z,95.83
2023-03-25T05:59:38.915Z,95.88
2023-03-25T06:00:38.878Z,96.02
2023-03-25T06:01:38.888Z,95.90
2023-03-25T06:02:39.003Z,96.02
2023-03-25T06:03:38.942Z,96.24
2023-03-25T06:04:38.846Z,96.31
2023-03-25T06:05:38.824Z,96.56
2023-03-25T06:06:39.062Z,96.59
2023-03-25T06:07:38.810Z,96.58
2023-03-25T06:08:39.469Z,96.36
2023-03-25T06:09:38.779Z,96.15
2023-03-25T06:10:38.749Z,95.93
2023-03-25T06:11:39.437Z,95.93
2023-03-25T06:12:38.743Z,96.11
2023-03-25T06:13:38.732Z,95.91
2023-03-25T06:14:38.730Z,95.84
2023-03-25T06:15:38.739Z,95.96
2023-03-25T06:16:38.687Z,96.23
2023-03-25T06:17:38.783Z,96.28
2023-03-25T06:18:38.422Z,96.04
2023-03-25T06:19:38.419Z,96.00
2023-03-25T06:20:38.424Z,95.68
2023-03-25T06:21:38.617Z,95.21
2023-03-25T06:22:39.288Z,95.05
2023-03-25T06:23:38.619Z,95.03
2023-03-25T06:24:38.631Z,95.08
2023-03-25T06:25:38.539Z,95.02
2023-03-25T06:26:38.556Z,95.01
2023-03-25T06:27:38.539Z,94.68
2023-03-25T06:28:39.204Z,94.39
2023-03-25T06:29:38.542Z,94.37
2023-03-25T06:30:38.481Z,94.81
2023-03-25T06:31:37.998Z,94.46
2023-03-25T06:32:38.528Z,93.97
2023-03-25T06:33:42.770Z,94.35
2023-03-25T06:34:39.461Z,94.29
2023-03-25T06:35:38.477Z,94.26
2023-03-25T06:36:38.424Z,93.85
2023-03-25T06:37:38.408Z,94.12
2023-03-25T06:38:38.401Z,93.87
2023-03-25T06:39:39.055Z,93.81
2023-03-25T06:40:38.341Z,93.89
2023-03-25T06:41:38.361Z,94.05
2023-03-25T06:42:39.014Z,94.43
2023-03-25T06:43:38.371Z,94.20
2023-03-25T06:44:38.307Z,94.25
2023-03-25T06:45:38.965Z,93.79
2023-03-25T06:46:39.077Z,93.65
2023-03-25T06:47:41.447Z,93.79
2023-03-25T06:48:38.248Z,93.22
2023-03-25T06:49:38.247Z,93.05
2023-03-25T06:50:38.245Z,92.59
2023-03-25T06:51:38.191Z,92.27
2023-03-25T06:52:38.198Z,92.27
2023-03-25T06:53:38.287Z,92.36
2023-03-25T06:54:38.177Z,92.19
2023-03-25T06:55:38.159Z,92.27
2023-03-25T06:56:38.221Z,91.89
2023-03-25T06:57:38.126Z,91.93
2023-03-25T06:58:38.147Z,92.05
2023-03-25T06:59:38.124Z,91.86
2023-03-25T07:00:38.090Z,92.29
2023-03-25T07:01:38.094Z,92.52
2023-03-25T07:02:38.159Z,92.51
2023-03-25T07:03:37.458Z,92.34
2023-03-25T07:04:38.047Z,92.74
2023-03-25T07:05:38.118Z,92.16
2023-03-25T07:06:37.302Z,91.14
2023-03-25T07:07:37.999Z,91.02
2023-03-25T07:08:37.991Z,90.58
2023-03-25T07:09:38.642Z,90.38
2023-03-25T07:10:37.952Z,90.45
2023-03-25T07:11:37.930Z,90.27
2023-03-25T07:12:37.937Z,90.51
2023-03-25T07:13:37.909Z,90.41
2023-03-25T07:14:37.916Z,90.43
2023-03-25T07:15:38.622Z,90.26
2023-03-25T07:16:38.072Z,90.30
2023-03-25T07:17:37.879Z,90.30
2023-03-25T07:18:37.852Z,89.81
2023-03-25T07:19:37.830Z,89.85
2023-03-25T07:20:37.822Z,89.69
2023-03-25T07:21:38.500Z,89.73
2023-03-25T07:22:37.063Z,89.42
2023-03-25T07:23:37.784Z,89.31
2023-03-25T07:24:37.779Z,88.94
2023-03-25T07:25:37.763Z,89.44
2023-03-25T07:26:38.476Z,89.26
2023-03-25T07:27:37.468Z,89.57
2023-03-25T07:28:37.472Z,88.09
2023-03-25T07:29:37.467Z,87.77
2023-03-25T07:30:37.519Z,85.64
2023-03-25T07:31:38.102Z,83.89
2023-03-25T07:32:38.388Z,84.53
2023-03-25T07:33:37.642Z,83.34
2023-03-25T07:34:37.639Z,81.24
2023-03-25T07:35:37.501Z,82.79
2023-03-25T07:36:37.477Z,83.48
2023-03-25T07:37:37.616Z,83.99
2023-03-25T07:38:37.485Z,84.01
2023-03-25T07:39:37.569Z,84.13
2023-03-25T07:40:37.573Z,85.07
2023-03-25T07:41:37.512Z,86.13
2023-03-25T07:42:37.529Z,86.02
2023-03-25T07:43:37.502Z,86.19
2023-03-25T07:44:38.488Z,85.79
2023-03-25T07:45:43.834Z,86.21
2023-03-25T07:46:38.192Z,86.71
2023-03-25T07:47:38.234Z,86.63
2023-03-25T07:48:38.158Z,86.58
2023-03-25T07:49:38.154Z,87.00
2023-03-25T07:50:38.137Z,87.18
2023-03-25T07:51:37.392Z,87.35
2023-03-25T07:52:38.105Z,86.69
2023-03-25T07:53:37.373Z,86.99
2023-03-25T07:54:38.076Z,86.82
2023-03-25T07:55:38.090Z,87.19
2023-03-25T07:56:37.347Z,87.71
2023-03-25T07:57:38.040Z,87.60
2023-03-25T07:58:38.032Z,87.54
2023-03-25T07:59:37.296Z,87.44
2023-03-25T08:00:37.298Z,87.25
2023-03-25T08:01:38.201Z,87.63
2023-03-25T08:02:37.340Z,87.24
2023-03-25T08:03:37.373Z,87.50
2023-03-25T08:04:37.896Z,87.31
2023-03-25T08:05:37.214Z,87.18
2023-03-25T08:06:37.193Z,87.22
2023-03-25T08:07:37.161Z,87.10
2023-03-25T08:08:37.167Z,87.34
2023-03-25T08:09:37.169Z,87.10
2023-03-25T08:10:37.145Z,87.43
2023-03-25T08:11:37.343Z,87.21
2023-03-25T08:12:37.096Z,86.84
2023-03-25T08:13:37.767Z,86.42
2023-03-25T08:14:37.080Z,85.06
2023-03-25T08:15:36.342Z,84.70
2023-03-25T08:16:37.149Z,83.25
2023-03-25T08:17:37.059Z,80.68
2023-03-25T08:18:37.040Z,80.98
2023-03-25T08:19:37.090Z,80.91
2023-03-25T08:20:36.998Z,80.15
2023-03-25T08:21:36.998Z,81.28
2023-03-25T08:22:37.708Z,83.26
2023-03-25T08:23:36.998Z,84.33
2023-03-25T08:24:36.952Z,85.08
2023-03-25T08:25:36.927Z,84.61
2023-03-25T08:26:36.914Z,85.22
2023-03-25T08:27:36.889Z,85.21
2023-03-25T08:28:36.886Z,85.54
2023-03-25T08:29:36.876Z,85.89
2023-03-25T08:30:36.871Z,85.06
2023-03-25T08:31:36.418Z,85.39
2023-03-25T08:32:36.816Z,85.52
2023-03-25T08:33:36.825Z,85.85
2023-03-25T08:34:36.149Z,85.81
2023-03-25T08:35:36.810Z,85.27
2023-03-25T08:36:36.786Z,85.56
2023-03-25T08:37:36.522Z,85.69
2023-03-25T08:38:36.526Z,85.44
2023-03-25T08:39:36.524Z,85.73
2023-03-25T08:40:36.531Z,86.05
2023-03-25T08:41:36.525Z,85.66
2023-03-25T08:42:36.533Z,84.52
2023-03-25T08:43:36.675Z,84.38
2023-03-25T08:44:36.667Z,84.25
2023-03-25T08:45:36.666Z,84.53
2023-03-25T08:46:37.379Z,84.84
2023-03-25T08:47:35.980Z,84.89
2023-03-25T08:48:36.616Z,83.62
2023-03-25T08:49:37.276Z,83.94
2023-03-25T08:50:36.027Z,84.25
2023-03-25T08:51:36.569Z,84.79
2023-03-25T08:52:36.538Z,84.03
2023-03-25T08:53:36.566Z,83.89
2023-03-25T08:54:37.269Z,83.81
2023-03-25T08:55:36.521Z,83.93
2023-03-25T08:56:36.554Z,83.26
2023-03-25T08:57:36.477Z,83.52
2023-03-25T08:58:36.482Z,83.62
2023-03-25T08:59:36.477Z,83.89
2023-03-25T09:00:36.446Z,83.00
2023-03-25T09:01:36.453Z,82.79
2023-03-25T09:02:36.439Z,82.44
2023-03-25T09:03:36.450Z,82.17
2023-03-25T09:04:36.409Z,76.97
2023-03-25T09:05:36.438Z,76.32
2023-03-25T09:06:47.780Z,77.45
2023-03-25T09:07:37.329Z,77.24
2023-03-25T09:08:36.364Z,79.35
2023-03-25T09:09:36.997Z,79.77
2023-03-25T09:10:38.137Z,79.81
2023-03-25T09:11:37.074Z,79.76
2023-03-25T09:12:36.261Z,80.79
2023-03-25T09:13:36.319Z,80.15
2023-03-25T09:14:36.268Z,78.29
2023-03-25T09:15:36.267Z,77.24
2023-03-25T09:16:36.237Z,74.36
2023-03-25T09:17:36.286Z,73.53
2023-03-25T09:18:36.228Z,70.47
2023-03-25T09:19:36.863Z,70.07
2023-03-25T09:20:36.179Z,71.26
2023-03-25T09:21:36.171Z,71.92
2023-03-25T09:22:36.124Z,70.68
2023-03-25T09:23:36.135Z,72.28
2023-03-25T09:24:36.122Z,73.51
2023-03-25T09:25:36.110Z,74.80
2023-03-25T09:26:36.091Z,74.96
2023-03-25T09:27:35.559Z,75.17
2023-03-25T09:28:36.069Z,74.84
2023-03-25T09:29:36.065Z,75.52
2023-03-25T09:30:36.036Z,74.18
2023-03-25T09:31:36.758Z,73.46
2023-03-25T09:32:36.037Z,73.75
2023-03-25T09:33:36.007Z,74.55
2023-03-25T09:34:35.982Z,73.11
2023-03-25T09:35:35.985Z,72.61
2023-03-25T09:36:35.967Z,73.53
2023-03-25T09:37:35.928Z,73.74
2023-03-25T09:38:35.939Z,75.13
2023-03-25T09:39:35.912Z,74.68
2023-03-25T09:40:35.898Z,74.97
2023-03-25T09:41:35.894Z,74.15
2023-03-25T09:42:35.848Z,73.48
2023-03-25T09:43:35.548Z,73.77
2023-03-25T09:44:35.854Z,71.67
2023-03-25T09:45:35.885Z,68.81
2023-03-25T09:46:35.612Z,65.14
2023-03-25T09:47:35.632Z,66.33
2023-03-25T09:48:35.582Z,68.06
2023-03-25T09:49:35.782Z,71.26
2023-03-25T09:50:35.593Z,71.25
2023-03-25T09:51:35.589Z,72.20
2023-03-25T09:52:35.741Z,71.32
2023-03-25T09:53:35.702Z,71.21
2023-03-25T09:54:35.708Z,71.67
2023-03-25T09:55:35.703Z,72.62
2023-03-25T09:56:37.439Z,73.11
2023-03-25T09:57:36.667Z,73.65
2023-03-25T09:58:35.593Z,74.68
2023-03-25T09:59:35.655Z,75.30
2023-03-25T10:00:35.720Z,76.18
2023-03-25T10:01:35.681Z,76.71
2023-03-25T10:02:35.738Z,76.48
2023-03-25T10:03:36.319Z,75.78
2023-03-25T10:04:35.570Z,76.86
2023-03-25T10:05:35.589Z,78.96
2023-03-25T10:06:35.570Z,78.17
2023-03-25T10:07:36.246Z,78.04
2023-03-25T10:08:36.258Z,78.40
2023-03-25T10:09:36.231Z,78.28
2023-03-25T10:10:36.231Z,78.55
2023-03-25T10:11:36.197Z,77.94
2023-03-25T10:12:36.194Z,76.93
2023-03-25T10:13:35.425Z,73.85
2023-03-25T10:14:35.460Z,72.37
2023-03-25T10:15:35.456Z,72.95
2023-03-25T10:16:36.151Z,73.34
2023-03-25T10:17:35.205Z,73.66
2023-03-25T10:18:36.124Z,74.01
2023-03-25T10:19:35.372Z,76.53
2023-03-25T10:20:35.402Z,77.47
2023-03-25T10:21:35.360Z,77.53
2023-03-25T10:22:36.004Z,77.06
2023-03-25T10:23:36.000Z,77.98
2023-03-25T10:24:35.302Z,78.62
2023-03-25T10:25:35.960Z,78.30
2023-03-25T10:26:35.273Z,79.32
2023-03-25T10:27:35.951Z,81.21
2023-03-25T10:28:35.244Z,82.89
2023-03-25T10:29:35.235Z,83.78
2023-03-25T10:30:35.235Z,84.05
2023-03-25T10:31:35.243Z,85.82
2023-03-25T10:32:35.892Z,87.97
2023-03-25T10:33:35.158Z,89.56
2023-03-25T10:34:36.155Z,90.24
2023-03-25T10:35:35.232Z,90.99
2023-03-25T10:36:35.129Z,91.00
2023-03-25T10:37:35.132Z,91.40
2023-03-25T10:38:35.787Z,91.51
2023-03-25T10:39:35.091Z,92.47
2023-03-25T10:40:35.089Z,89.78
2023-03-25T10:41:34.744Z,87.11
2023-03-25T10:42:35.730Z,86.62
2023-03-25T10:43:35.035Z,86.11
2023-03-25T10:44:35.021Z,84.89
2023-03-25T10:45:35.067Z,83.01
2023-03-25T10:46:35.024Z,80.08
2023-03-25T10:47:34.744Z,79.15
2023-03-25T10:48:34.761Z,76.39
2023-03-25T10:49:34.970Z,75.53
2023-03-25T10:50:34.945Z,73.37
2023-03-25T10:51:34.930Z,73.58
2023-03-25T10:52:34.930Z,74.61
2023-03-25T10:53:34.877Z,71.26
2023-03-25T10:54:34.640Z,73.56
2023-03-25T10:55:34.638Z,73.30
2023-03-25T10:56:34.697Z,74.84
2023-03-25T10:57:34.650Z,71.93
2023-03-25T10:58:34.646Z,70.42
2023-03-25T10:59:34.650Z,71.69
2023-03-25T11:00:34.653Z,73.44
2023-03-25T11:01:34.683Z,71.51
2023-03-25T11:02:34.759Z,74.14
2023-03-25T11:03:34.689Z,75.82
2023-03-25T11:04:35.485Z,74.42
2023-03-25T11:05:34.696Z,71.72
2023-03-25T11:06:34.731Z,69.66
2023-03-25T11:07:34.785Z,68.52
2023-03-25T11:08:34.679Z,71.75
2023-03-25T11:09:33.987Z,67.50
2023-03-25T11:10:34.010Z,66.34
2023-03-25T11:11:34.650Z,65.56
2023-03-25T11:12:42.904Z,63.77
2023-03-25T11:13:35.613Z,62.35
2023-03-25T11:14:34.642Z,60.27
2023-03-25T11:15:34.896Z,61.57
2023-03-25T11:16:34.619Z,63.55
2023-03-25T11:17:34.605Z,64.15
2023-03-25T11:18:33.882Z,64.62
2023-03-25T11:19:34.549Z,67.68
2023-03-25T11:20:34.537Z,69.33
2023-03-25T11:21:34.540Z,67.99
2023-03-25T11:22:34.537Z,69.19
2023-03-25T11:23:34.527Z,73.75
2023-03-25T11:24:34.458Z,76.28
2023-03-25T11:25:34.463Z,79.25
2023-03-25T11:26:33.899Z,81.44
2023-03-25T11:27:34.444Z,83.42
2023-03-25T11:28:34.419Z,86.87
2023-03-25T11:29:34.387Z,86.55
2023-03-25T11:30:34.407Z,87.15
2023-03-25T11:31:34.383Z,85.33
2023-03-25T11:32:34.397Z,82.10
2023-03-25T11:33:34.369Z,81.63
2023-03-25T11:34:33.639Z,78.55
2023-03-25T11:35:34.382Z,77.11
2023-03-25T11:36:34.334Z,76.33
2023-03-25T11:37:34.300Z,76.85
2023-03-25T11:38:34.340Z,78.21
2023-03-25T11:39:34.234Z,77.08
2023-03-25T11:40:34.251Z,78.34
2023-03-25T11:41:34.260Z,80.43
2023-03-25T11:42:33.534Z,80.52
2023-03-25T11:43:34.448Z,81.03
2023-03-25T11:44:34.185Z,81.21
2023-03-25T11:45:35.463Z,81.98
2023-03-25T11:46:34.860Z,81.05
2023-03-25T11:47:34.225Z,83.03
2023-03-25T11:48:34.135Z,81.62
2023-03-25T11:49:34.131Z,73.90
2023-03-25T11:50:33.397Z,67.13
2023-03-25T11:51:34.099Z,68.23
2023-03-25T11:52:34.087Z,67.36
2023-03-25T11:53:34.099Z,68.06
2023-03-25T11:54:34.044Z,66.38
2023-03-25T11:55:34.048Z,65.28
2023-03-25T11:56:34.753Z,61.59
2023-03-25T11:57:34.023Z,59.54
2023-03-25T11:58:33.272Z,59.67
2023-03-25T11:59:33.521Z,60.79
2023-03-25T12:00:34.218Z,58.50
2023-03-25T12:01:33.221Z,59.45
2023-03-25T12:02:34.067Z,55.03
2023-03-25T12:03:33.988Z,59.04
2023-03-25T12:04:33.597Z,57.33
2023-03-25T12:05:33.928Z,56.55
2023-03-25T12:06:33.224Z,59.31
2023-03-25T12:07:33.711Z,57.85
2023-03-25T12:08:33.874Z,60.29
2023-03-25T12:09:33.125Z,62.37
2023-03-25T12:10:33.849Z,63.43
2023-03-25T12:11:33.837Z,61.69
2023-03-25T12:12:33.702Z,60.67
2023-03-25T12:13:33.823Z,61.84
2023-03-25T12:14:33.728Z,59.67
2023-03-25T12:15:34.447Z,57.67
2023-03-25T12:16:33.799Z,60.24
2023-03-25T12:17:33.071Z,60.58
2023-03-25T12:18:33.731Z,59.77
2023-03-25T12:19:34.465Z,58.32
2023-03-25T12:20:33.146Z,59.51
2023-03-25T12:21:33.321Z,61.31
2023-03-25T12:22:33.017Z,59.08
2023-03-25T12:23:33.677Z,59.86
2023-03-25T12:24:34.385Z,60.43
2023-03-25T12:25:34.356Z,60.52
2023-03-25T12:26:33.633Z,61.86
2023-03-25T12:27:34.328Z,60.46
2023-03-25T12:28:33.609Z,60.81
2023-03-25T12:29:34.316Z,61.86
2023-03-25T12:30:34.298Z,59.13
2023-03-25T12:31:33.607Z,58.47
2023-03-25T12:32:34.296Z,57.14
2023-03-25T12:33:33.538Z,55.20
2023-03-25T12:34:33.499Z,52.16
2023-03-25T12:35:33.520Z,53.76
2023-03-25T12:36:33.487Z,54.38
2023-03-25T12:37:33.481Z,55.49
2023-03-25T12:38:32.714Z,56.21
2023-03-25T12:39:42.872Z,57.18
2023-03-25T12:40:34.434Z,56.54
2023-03-25T12:41:33.637Z,56.75
2023-03-25T12:42:33.456Z,57.46
2023-03-25T12:43:33.391Z,55.27
2023-03-25T12:44:33.353Z,52.60
2023-03-25T12:45:33.398Z,53.60
2023-03-25T12:46:33.349Z,53.88
2023-03-25T12:47:33.362Z,53.64
2023-03-25T12:48:33.338Z,49.46
2023-03-25T12:49:33.284Z,51.64
2023-03-25T12:50:35.363Z,49.80